createdAt,value
2022-12-06T00:01:31.378Z,7.97
2022-12-06T00:06:33.438Z,7.17
2022-12-06T00:11:33.884Z,8.73
2022-12-06T00:23:31.510Z,8.30
2022-12-06T00:28:30.213Z,5.03
2022-12-06T00:33:28.672Z,8.20
2022-12-06T00:38:29.213Z,6.70
2022-12-06T00:43:53.612Z,5.73
2022-12-06T00:48:52.995Z,9.93
2022-12-06T00:53:52.857Z,3.87
2022-12-06T00:58:51.110Z,5.70
2022-12-06T01:03:52.209Z,4.50
2022-12-06T01:08:52.210Z,6.30
2022-12-06T01:13:51.673Z,4.27
2022-12-06T01:18:53.730Z,4.17
2022-12-06T01:30:48.801Z,3.50
2022-12-06T01:35:47.103Z,3.87
2022-12-06T01:40:47.558Z,6.10
2022-12-06T01:45:45.924Z,5.80
2022-12-06T01:50:45.540Z,6.50
2022-12-06T01:55:43.761Z,5.83
2022-12-06T02:00:42.000Z,4.10
2022-12-06T02:05:41.015Z,5.50
2022-12-06T02:10:41.080Z,5.67
2022-12-06T02:15:49.089Z,3.87
2022-12-06T02:20:51.567Z,4.67
2022-12-06T02:26:16.312Z,3.13
2022-12-06T02:31:21.458Z,8.97
2022-12-06T02:36:29.014Z,4.87
2022-12-06T02:48:26.976Z,4.50
2022-12-06T02:59:58.843Z,5.73
2022-12-06T03:05:09.706Z,5.47
2022-12-06T03:10:26.370Z,6.17
2022-12-06T03:15:35.484Z,4.10
2022-12-06T03:20:43.020Z,4.90
2022-12-06T03:25:43.427Z,4.90
2022-12-06T03:30:44.098Z,3.30
2022-12-06T03:35:46.026Z,3.63
2022-12-06T03:40:49.030Z,3.13
2022-12-06T03:45:54.329Z,4.70
2022-12-06T03:51:00.743Z,3.73
2022-12-06T03:55:59.686Z,3.70
2022-12-06T04:01:04.774Z,4.30
2022-12-06T04:06:04.848Z,4.13
2022-12-06T04:11:03.163Z,8.10
2022-12-06T04:16:02.700Z,5.30
2022-12-06T04:28:15.086Z,3.40
2022-12-06T04:33:30.453Z,4.50
2022-12-06T04:38:43.389Z,5.27
2022-12-06T04:43:45.511Z,3.70
2022-12-06T04:48:43.864Z,5.03
2022-12-06T04:53:52.418Z,5.47
2022-12-06T04:58:51.892Z,4.60
2022-12-06T05:03:50.140Z,5.30
2022-12-06T05:08:48.320Z,3.17
2022-12-06T05:13:46.459Z,3.93
2022-12-06T05:18:45.930Z,3.43
2022-12-06T05:23:44.104Z,3.27
2022-12-06T05:29:34.825Z,4.03
2022-12-06T05:34:34.388Z,3.57
2022-12-06T05:39:32.541Z,5.93
2022-12-06T05:44:30.712Z,7.90
2022-12-06T05:56:18.925Z,8.23
2022-12-06T06:01:17.029Z,4.60
2022-12-06T06:06:15.276Z,5.60
2022-12-06T06:11:13.397Z,7.37
2022-12-06T06:16:12.882Z,4.77
2022-12-06T06:21:11.047Z,7.63
2022-12-06T06:26:10.215Z,6.93
2022-12-06T06:31:09.274Z,4.40
2022-12-06T06:36:09.658Z,7.37
2022-12-06T06:41:08.349Z,8.03
2022-12-06T06:52:56.921Z,6.10
2022-12-06T06:57:54.996Z,8.53
2022-12-06T07:02:53.184Z,7.00
2022-12-06T07:07:51.435Z,5.23
2022-12-06T07:12:51.494Z,8.13
2022-12-06T07:17:51.434Z,6.90
2022-12-06T07:22:49.517Z,8.27
2022-12-06T07:27:47.680Z,8.30
2022-12-06T07:32:47.126Z,8.00
2022-12-06T07:37:45.964Z,7.53
2022-12-06T07:43:01.409Z,6.03
2022-12-06T07:48:00.934Z,5.50
2022-12-06T07:53:00.296Z,11.20
2022-12-06T07:57:58.438Z,6.53
2022-12-06T08:02:56.770Z,4.97
2022-12-06T08:07:56.378Z,9.57
2022-12-06T08:12:54.605Z,6.57
2022-12-06T08:17:52.760Z,7.77
2022-12-06T08:22:50.898Z,5.60
2022-12-06T08:27:50.441Z,9.53
2022-12-06T08:32:48.715Z,6.90
2022-12-06T08:37:46.822Z,6.87
2022-12-06T08:42:45.973Z,5.30
2022-12-06T08:47:45.459Z,4.80
2022-12-06T08:52:43.602Z,4.30
2022-12-06T08:57:41.780Z,7.50
2022-12-06T09:09:38.271Z,5.67
2022-12-06T09:14:38.136Z,4.00
2022-12-06T09:19:36.431Z,4.93
2022-12-06T09:24:41.776Z,3.77
2022-12-06T09:29:41.040Z,3.50
2022-12-06T09:34:39.244Z,5.47
2022-12-06T09:39:40.743Z,5.00
2022-12-06T09:45:09.714Z,4.10
2022-12-06T09:50:16.930Z,4.40
2022-12-06T10:02:41.927Z,8.57
2022-12-06T10:07:49.092Z,5.33
2022-12-06T10:19:53.976Z,5.33
2022-12-06T10:25:04.124Z,8.50
2022-12-06T10:37:05.834Z,9.10
2022-12-06T10:42:13.054Z,8.40
2022-12-06T10:47:42.604Z,7.63
2022-12-06T10:52:45.742Z,7.20
2022-12-06T10:58:37.279Z,9.90
2022-12-06T11:03:42.276Z,11.43
2022-12-06T11:09:02.461Z,9.13
2022-12-06T11:14:51.162Z,10.73
2022-12-06T11:33:15.448Z,17.93
2022-12-06T11:38:15.461Z,15.67
2022-12-06T11:43:19.156Z,22.67
2022-12-06T11:48:20.755Z,13.00
2022-12-06T11:53:25.278Z,19.57
2022-12-06T11:58:30.169Z,20.87
2022-12-06T12:10:33.901Z,15.50
2022-12-06T12:15:33.081Z,16.60
2022-12-06T12:34:15.727Z,17.60
2022-12-06T12:39:24.639Z,19.60
2022-12-06T12:44:37.732Z,19.63
2022-12-06T12:49:39.069Z,16.10
2022-12-06T12:54:38.424Z,10.17
2022-12-06T13:06:32.707Z,17.53
2022-12-06T13:12:20.461Z,11.47
2022-12-06T13:17:20.174Z,16.20
2022-12-06T13:22:24.125Z,18.87
2022-12-06T13:27:24.570Z,14.57
2022-12-06T13:32:27.823Z,16.03
2022-12-06T13:37:35.151Z,16.27
2022-12-06T13:42:47.115Z,10.53
2022-12-06T13:48:03.391Z,15.20
2022-12-06T13:59:58.735Z,13.03
2022-12-06T14:25:26.960Z,11.80
2022-12-06T14:30:26.733Z,12.27
2022-12-06T14:35:28.275Z,10.73
2022-12-06T14:41:35.114Z,14.03
2022-12-06T14:46:34.685Z,10.07
2022-12-06T14:51:40.997Z,10.90
2022-12-06T14:56:39.382Z,16.03
2022-12-06T15:01:48.681Z,9.50
2022-12-06T15:06:55.405Z,11.30
2022-12-06T15:12:11.074Z,11.33
2022-12-06T15:17:19.254Z,10.30
2022-12-06T15:22:24.955Z,4.90
2022-12-06T15:27:26.755Z,14.13
2022-12-06T15:32:27.422Z,7.33
2022-12-06T15:37:43.978Z,14.73
2022-12-06T15:42:43.702Z,10.50
2022-12-06T15:47:43.200Z,8.10
2022-12-06T15:59:30.440Z,7.60
2022-12-06T16:04:32.737Z,8.77
2022-12-06T16:16:20.565Z,10.30
2022-12-06T16:21:23.088Z,7.00
2022-12-06T16:26:21.242Z,8.50
2022-12-06T16:31:19.506Z,10.43
2022-12-06T16:36:22.988Z,10.50
2022-12-06T16:41:23.986Z,7.03
2022-12-06T16:46:27.651Z,5.23
2022-12-06T16:51:29.027Z,3.70
2022-12-06T16:56:30.999Z,6.17
2022-12-06T17:01:31.929Z,7.27
2022-12-06T17:06:58.915Z,5.27
2022-12-06T17:12:06.878Z,6.70
2022-12-06T17:30:49.319Z,16.37
2022-12-06T17:35:49.029Z,16.93
2022-12-06T17:40:47.148Z,12.20
2022-12-06T17:45:46.626Z,17.97
2022-12-06T17:50:44.775Z,16.43
2022-12-06T18:02:39.908Z,11.60
2022-12-06T18:07:38.226Z,5.90
2022-12-06T18:12:36.446Z,6.13
2022-12-06T18:17:34.632Z,8.77
2022-12-06T18:22:34.109Z,6.70
2022-12-06T18:27:32.240Z,7.37
2022-12-06T18:32:30.379Z,5.63
2022-12-06T18:37:28.549Z,5.90
2022-12-06T18:42:28.090Z,8.57
2022-12-06T18:47:26.361Z,9.97
2022-12-06T18:52:24.547Z,12.60
2022-12-06T18:57:26.310Z,9.37
2022-12-06T19:02:28.546Z,4.93
2022-12-06T19:07:26.692Z,6.23
2022-12-06T19:12:24.780Z,7.33
2022-12-06T19:17:22.940Z,8.07
2022-12-06T19:22:22.353Z,6.33
2022-12-06T19:27:20.862Z,5.73
2022-12-06T19:32:19.174Z,13.60
2022-12-06T19:37:18.331Z,11.00
2022-12-06T19:42:35.492Z,9.20
2022-12-06T19:47:33.621Z,7.53
2022-12-06T19:52:31.699Z,8.27
2022-12-06T19:57:31.121Z,4.17
2022-12-06T20:02:29.253Z,4.57
2022-12-06T20:07:27.500Z,4.57
2022-12-06T20:12:25.596Z,11.33
2022-12-06T20:17:25.191Z,11.67
2022-12-06T20:22:23.231Z,13.63
2022-12-06T20:27:42.761Z,7.80
2022-12-06T20:32:42.208Z,8.40
2022-12-06T20:37:40.321Z,10.37
2022-12-06T20:42:38.439Z,10.10
2022-12-06T20:47:36.521Z,10.50
2022-12-06T20:52:36.214Z,6.57
2022-12-06T20:57:34.271Z,7.70
2022-12-06T21:02:33.053Z,8.53
2022-12-06T21:07:31.143Z,9.87
2022-12-06T21:12:30.615Z,6.63
2022-12-06T21:17:28.714Z,11.10
2022-12-06T21:22:26.819Z,7.90
2022-12-06T21:27:24.951Z,9.03
2022-12-06T21:32:25.820Z,6.53
2022-12-06T21:37:23.993Z,7.70
2022-12-06T21:48:51.229Z,9.80
2022-12-06T21:54:14.264Z,7.90
2022-12-06T21:59:12.345Z,9.57
2022-12-06T22:04:11.795Z,8.57
2022-12-06T22:09:10.892Z,10.67
2022-12-06T22:14:10.815Z,7.77
2022-12-06T22:19:08.915Z,11.60
2022-12-06T22:24:09.104Z,10.73
2022-12-06T22:29:07.258Z,9.40
2022-12-06T22:41:03.940Z,10.80
2022-12-06T22:46:07.090Z,12.60
2022-12-06T22:51:10.186Z,14.50
2022-12-06T22:56:10.615Z,17.60
2022-12-06T23:01:15.968Z,16.07
2022-12-06T23:06:15.638Z,16.80
2022-12-06T23:12:25.265Z,16.93
2022-12-06T23:17:24.748Z,14.13
2022-12-06T23:22:22.894Z,16.70
2022-12-06T23:27:21.069Z,11.50
2022-12-06T23:32:19.797Z,15.83
2022-12-06T23:37:19.341Z,12.63
2022-12-06T23:42:17.487Z,11.10
2022-12-06T23:47:15.714Z,12.13
2022-12-06T23:52:13.837Z,12.60
2022-12-06T23:57:19.358Z,14.80
